createdAt,value
2019-05-30T00:04:12.090Z,18
2019-05-30T00:09:28.239Z,18
2019-05-30T00:14:45.824Z,18
2019-05-30T00:20:01.146Z,18
2019-05-30T00:25:17.155Z,17
2019-05-30T00:25:53.391Z,17
2019-05-30T00:31:09.866Z,18
2019-05-30T00:36:25.132Z,18
2019-05-30T00:41:40.081Z,18
2019-05-30T00:46:56.373Z,18
2019-05-30T00:52:11.286Z,18
2019-05-30T00:57:26.285Z,18
2019-05-30T01:02:41.987Z,17
2019-05-30T01:07:57.161Z,17
2019-05-30T01:13:12.543Z,17
2019-05-30T01:18:28.191Z,17
2019-05-30T01:23:45.652Z,17
2019-05-30T01:29:01.738Z,17
2019-05-30T01:34:15.386Z,17
2019-05-30T01:39:31.409Z,17
2019-05-30T01:44:45.011Z,18
2019-05-30T01:50:02.396Z,18
2019-05-30T01:55:19.627Z,18
2019-05-30T02:00:35.713Z,18
2019-05-30T02:05:50.692Z,18
2019-05-30T02:11:05.780Z,18
2019-05-30T02:16:22.359Z,18
2019-05-30T02:21:38.316Z,18
2019-05-30T02:26:53.293Z,18
2019-05-30T02:32:11.286Z,18
2019-05-30T02:37:27.526Z,18
2019-05-30T02:42:42.631Z,18
2019-05-30T02:47:58.169Z,17
2019-05-30T02:53:13.890Z,17
2019-05-30T02:58:29.248Z,17
2019-05-30T03:03:44.278Z,17
2019-05-30T03:08:59.340Z,17
2019-05-30T03:14:20.397Z,18
2019-05-30T03:19:33.271Z,18
2019-05-30T03:24:49.307Z,18
2019-05-30T03:30:27.813Z,18
2019-05-30T03:35:45.047Z,18
2019-05-30T03:40:59.123Z,18
2019-05-30T03:46:15.438Z,17
2019-05-30T03:51:31.395Z,17
2019-05-30T03:56:47.718Z,17
2019-05-30T04:02:03.270Z,17
2019-05-30T04:07:19.870Z,18
2019-05-30T04:12:35.119Z,18
2019-05-30T04:17:51.562Z,18
2019-05-30T04:23:14.769Z,18
2019-05-30T04:28:31.406Z,18
2019-05-30T04:33:48.833Z,18
2019-05-30T04:39:03.873Z,18
2019-05-30T04:44:20.836Z,18
2019-05-30T04:49:37.609Z,18
2019-05-30T04:54:53.688Z,18
2019-05-30T05:00:10.864Z,18
2019-05-30T05:05:27.491Z,19
2019-05-30T05:10:44.803Z,19
2019-05-30T05:16:00.726Z,19
2019-05-30T05:21:17.185Z,19
2019-05-30T05:26:34.392Z,20
2019-05-30T05:31:50.123Z,20
2019-05-30T05:37:05.707Z,20
2019-05-30T05:42:28.877Z,21
2019-05-30T05:47:43.877Z,21
2019-05-30T05:53:00.198Z,21
2019-05-30T05:58:17.131Z,21
2019-05-30T06:03:30.056Z,21
2019-05-30T06:08:46.620Z,21
2019-05-30T06:14:02.355Z,21
2019-05-30T06:19:17.513Z,22
2019-05-30T06:24:36.378Z,22
2019-05-30T06:29:51.997Z,22
2019-05-30T06:35:06.611Z,22
2019-05-30T06:40:24.037Z,22
2019-05-30T06:45:40.301Z,22
2019-05-30T06:50:55.824Z,22
2019-05-30T06:56:10.873Z,22
2019-05-30T07:02:02.437Z,23
2019-05-30T07:07:17.778Z,23
2019-05-30T07:13:10.222Z,23
2019-05-30T07:18:27.415Z,24
2019-05-30T07:23:46.882Z,24
2019-05-30T07:40:07.491Z,24
2019-05-30T07:45:22.933Z,24
2019-05-30T07:50:39.116Z,25
2019-05-30T07:55:56.859Z,25
2019-05-30T08:01:48.997Z,26
2019-05-30T08:12:16.785Z,26
2019-05-30T08:17:36.006Z,26
2019-05-30T08:43:48.210Z,26
2019-05-30T08:49:04.316Z,26
2019-05-30T08:54:20.173Z,26
2019-05-30T08:59:36.979Z,26
2019-05-30T09:04:52.742Z,27
2019-05-30T09:10:10.667Z,27
2019-05-30T09:31:07.186Z,26
2019-05-30T09:36:23.450Z,26
2019-05-30T09:41:43.730Z,27
2019-05-30T09:46:58.654Z,27
2019-05-30T09:52:15.714Z,27
2019-05-30T10:07:58.037Z,27
2019-05-30T10:13:15.643Z,28
2019-05-30T10:18:32.051Z,28
2019-05-30T10:23:51.976Z,28
2019-05-30T10:34:24.270Z,28
2019-05-30T10:39:41.337Z,29
2019-05-30T10:44:58.244Z,29
2019-05-30T11:00:40.440Z,29
2019-05-30T11:16:26.454Z,29
2019-05-30T11:32:11.059Z,29
2019-05-30T11:47:54.254Z,29
2019-05-30T11:53:10.997Z,29
2019-05-30T11:58:31.137Z,29
2019-05-30T12:09:01.745Z,29
2019-05-30T12:19:31.722Z,29
2019-05-30T12:24:48.215Z,30
2019-05-30T12:30:04.101Z,30
2019-05-30T12:35:22.137Z,31
2019-05-30T12:45:53.146Z,31
2019-05-30T12:51:09.518Z,32
2019-05-30T12:56:25.668Z,32
2019-05-30T13:01:41.374Z,33
2019-05-30T13:06:59.450Z,33
2019-05-30T13:12:15.254Z,34
2019-05-30T13:17:32.218Z,34
2019-05-30T16:31:06.167Z,31
2019-05-30T17:07:41.550Z,28
2019-05-30T17:12:59.655Z,28
2019-05-30T17:18:15.952Z,28
2019-05-30T17:23:30.881Z,28
2019-05-30T17:28:46.181Z,27
2019-05-30T17:34:02.011Z,27
2019-05-30T17:44:31.568Z,26
2019-05-30T17:49:46.969Z,26
2019-05-30T17:55:02.443Z,25
2019-05-30T18:00:17.555Z,25
2019-05-30T18:05:32.371Z,25
2019-05-30T18:10:54.479Z,25
2019-05-30T18:16:10.521Z,25
2019-05-30T18:21:27.669Z,25
2019-05-30T18:26:42.425Z,24
2019-05-30T18:31:57.551Z,24
2019-05-30T18:37:12.206Z,24
2019-05-30T18:42:29.292Z,24
2019-05-30T18:47:44.933Z,23
2019-05-30T18:53:00.880Z,23
2019-05-30T18:58:16.648Z,23
2019-05-30T19:03:33.581Z,23
2019-05-30T19:08:48.917Z,23
2019-05-30T19:14:04.991Z,23
2019-05-30T19:19:22.378Z,22
2019-05-30T19:24:37.487Z,22
2019-05-30T19:29:52.328Z,22
2019-05-30T19:35:07.515Z,22
2019-05-30T19:40:25.205Z,22
2019-05-30T19:45:41.312Z,22
2019-05-30T19:50:56.956Z,21
2019-05-30T19:56:12.300Z,21
2019-05-30T20:01:27.645Z,20
2019-05-30T20:06:42.966Z,20
2019-05-30T20:12:09.184Z,20
2019-05-30T20:17:25.943Z,20
2019-05-30T20:22:42.790Z,20
2019-05-30T20:27:55.668Z,20
2019-05-30T20:33:12.075Z,20
2019-05-30T20:38:27.339Z,20
2019-05-30T20:43:43.349Z,20
2019-05-30T20:49:00.046Z,20
2019-05-30T20:54:16.283Z,20
2019-05-30T20:59:31.582Z,20
2019-05-30T21:04:47.921Z,20
2019-05-30T21:10:02.521Z,20
2019-05-30T21:15:18.832Z,20
2019-05-30T21:20:31.002Z,19
2019-05-30T21:25:47.973Z,19
2019-05-30T21:31:03.237Z,19
2019-05-30T21:36:18.467Z,19
2019-05-30T21:41:33.709Z,19
2019-05-30T21:46:49.386Z,19
2019-05-30T21:52:05.981Z,19
2019-05-30T21:57:22.996Z,19
2019-05-30T22:02:38.112Z,19
2019-05-30T22:07:52.934Z,19
2019-05-30T22:13:10.111Z,19
2019-05-30T22:18:25.108Z,19
2019-05-30T22:23:42.310Z,19
2019-05-30T22:28:57.674Z,19
2019-05-30T22:34:15.775Z,19
2019-05-30T22:39:30.690Z,19
2019-05-30T22:44:46.339Z,19
2019-05-30T22:50:00.819Z,19
2019-05-30T23:00:30.276Z,18
2019-05-30T23:05:45.663Z,18
2019-05-30T23:11:01.091Z,18
2019-05-30T23:16:17.453Z,18
2019-05-30T23:21:33.518Z,18
2019-05-30T23:26:50.201Z,18
2019-05-30T23:32:07.565Z,18
2019-05-30T23:37:24.135Z,18
2019-05-30T23:42:40.623Z,18
2019-05-30T23:47:55.880Z,18
2019-05-30T23:53:10.928Z,18
2019-05-30T23:58:25.730Z,18
